sensor_id;sensor_type;location;lat;lon;timestamp;pressure;altitude;pressure_sealevel;temperature;humidity
2188;BME280;1100;52.014;8.540;2023-03-30T00:02:17;99330.75;;;10.98;82.23
2188;BME280;1100;52.014;8.540;2023-03-30T00:04:43;99332.88;;;10.94;81.83
2188;BME280;1100;52.014;8.540;2023-03-30T00:07:09;99328.22;;;10.91;82.22
2188;BME280;1100;52.014;8.540;2023-03-30T00:09:34;99327.50;;;11.00;82.25
2188;BME280;1100;52.014;8.540;2023-03-30T00:12:07;99326.56;;;11.03;82.26
2188;BME280;1100;52.014;8.540;2023-03-30T00:14:33;99317.00;;;11.04;82.16
2188;BME280;1100;52.014;8.540;2023-03-30T00:17:03;99315.59;;;11.08;82.05
2188;BME280;1100;52.014;8.540;2023-03-30T00:19:28;99315.94;;;11.11;81.96
2188;BME280;1100;52.014;8.540;2023-03-30T00:21:53;99311.28;;;11.07;81.78
2188;BME280;1100;52.014;8.540;2023-03-30T00:24:19;99303.53;;;11.02;81.63
2188;BME280;1100;52.014;8.540;2023-03-30T00:26:44;99310.81;;;11.00;81.91
2188;BME280;1100;52.014;8.540;2023-03-30T00:29:10;99301.09;;;11.04;81.92
2188;BME280;1100;52.014;8.540;2023-03-30T00:31:35;99292.09;;;11.09;81.86
2188;BME280;1100;52.014;8.540;2023-03-30T00:34:01;99299.84;;;11.15;81.81
2188;BME280;1100;52.014;8.540;2023-03-30T00:36:26;99297.69;;;11.19;81.84
2188;BME280;1100;52.014;8.540;2023-03-30T00:38:51;99298.00;;;11.21;81.61
2188;BME280;1100;52.014;8.540;2023-03-30T00:41:17;99301.38;;;11.16;81.38
2188;BME280;1100;52.014;8.540;2023-03-30T00:43:59;99287.34;;;11.10;81.29
2188;BME280;1100;52.014;8.540;2023-03-30T00:46:25;99284.22;;;11.08;81.44
2188;BME280;1100;52.014;8.540;2023-03-30T00:48:50;99284.09;;;11.02;81.24
2188;BME280;1100;52.014;8.540;2023-03-30T00:51:16;99270.50;;;10.95;81.52
2188;BME280;1100;52.014;8.540;2023-03-30T00:53:46;99276.34;;;10.97;81.48
2188;BME280;1100;52.014;8.540;2023-03-30T00:56:14;99269.56;;;10.98;81.56
2188;BME280;1100;52.014;8.540;2023-03-30T00:58:41;99258.91;;;10.96;81.53
2188;BME280;1100;52.014;8.540;2023-03-30T01:01:10;99260.31;;;11.01;81.52
2188;BME280;1100;52.014;8.540;2023-03-30T01:03:43;99253.63;;;11.08;81.30
2188;BME280;1100;52.014;8.540;2023-03-30T01:06:11;99248.41;;;11.10;81.31
2188;BME280;1100;52.014;8.540;2023-03-30T01:08:37;99259.66;;;11.16;81.31
2188;BME280;1100;52.014;8.540;2023-03-30T01:11:06;99244.22;;;11.15;81.01
2188;BME280;1100;52.014;8.540;2023-03-30T01:13:37;99244.38;;;11.11;80.90
2188;BME280;1100;52.014;8.540;2023-03-30T01:22:19;99241.91;;;10.94;80.93
2188;BME280;1100;52.014;8.540;2023-03-30T01:24:36;99230.94;;;11.09;81.34
2188;BME280;1100;52.014;8.540;2023-03-30T01:46:19;99202.63;;;11.20;80.45
2188;BME280;1100;52.014;8.540;2023-03-30T01:48:58;99194.75;;;11.19;80.33
2188;BME280;1100;52.014;8.540;2023-03-30T01:51:30;99192.59;;;11.23;80.39
2188;BME280;1100;52.014;8.540;2023-03-30T01:54:09;99165.72;;;11.29;80.36
2188;BME280;1100;52.014;8.540;2023-03-30T01:56:43;99162.00;;;11.23;79.86
2188;BME280;1100;52.014;8.540;2023-03-30T01:59:27;99158.31;;;11.17;80.09
2188;BME280;1100;52.014;8.540;2023-03-30T02:01:56;99153.69;;;11.14;80.11
2188;BME280;1100;52.014;8.540;2023-03-30T02:04:29;99159.53;;;11.16;80.25
2188;BME280;1100;52.014;8.540;2023-03-30T02:07:05;99157.19;;;11.24;80.28
2188;BME280;1100;52.014;8.540;2023-03-30T02:09:32;99154.13;;;11.31;79.98
2188;BME280;1100;52.014;8.540;2023-03-30T02:12:01;99163.84;;;11.36;79.80
2188;BME280;1100;52.014;8.540;2023-03-30T02:14:30;99148.06;;;11.42;79.78
2188;BME280;1100;52.014;8.540;2023-03-30T02:17:28;99155.75;;;11.47;79.57
2188;BME280;1100;52.014;8.540;2023-03-30T02:19:54;99150.19;;;11.47;79.61
2188;BME280;1100;52.014;8.540;2023-03-30T02:22:22;99153.75;;;11.48;79.35
2188;BME280;1100;52.014;8.540;2023-03-30T02:24:53;99164.75;;;11.42;79.34
2188;BME280;1100;52.014;8.540;2023-03-30T02:27:20;99157.66;;;11.31;78.99
2188;BME280;1100;52.014;8.540;2023-03-30T02:29:46;99151.94;;;11.26;79.52
2188;BME280;1100;52.014;8.540;2023-03-30T02:37:41;99156.25;;;11.27;79.54
2188;BME280;1100;52.014;8.540;2023-03-30T02:40:20;99153.78;;;11.29;79.38
2188;BME280;1100;52.014;8.540;2023-03-30T02:45:26;99159.97;;;11.33;79.24
2188;BME280;1100;52.014;8.540;2023-03-30T02:48:06;99149.63;;;11.33;79.28
2188;BME280;1100;52.014;8.540;2023-03-30T02:50:44;99144.06;;;11.33;79.28
2188;BME280;1100;52.014;8.540;2023-03-30T02:53:23;99143.25;;;11.33;79.06
2188;BME280;1100;52.014;8.540;2023-03-30T02:56:00;99136.00;;;11.36;78.98
2188;BME280;1100;52.014;8.540;2023-03-30T02:59:04;99127.94;;;11.38;78.78
2188;BME280;1100;52.014;8.540;2023-03-30T03:01:40;99126.25;;;11.40;78.82
2188;BME280;1100;52.014;8.540;2023-03-30T03:04:09;99123.91;;;11.48;78.49
2188;BME280;1100;52.014;8.540;2023-03-30T03:06:35;99116.16;;;11.52;78.50
2188;BME280;1100;52.014;8.540;2023-03-30T03:09:03;99113.06;;;11.50;78.38
2188;BME280;1100;52.014;8.540;2023-03-30T03:11:29;99118.63;;;11.50;78.32
2188;BME280;1100;52.014;8.540;2023-03-30T03:13:54;99116.16;;;11.52;78.02
2188;BME280;1100;52.014;8.540;2023-03-30T03:16:20;99114.88;;;11.63;77.83
2188;BME280;1100;52.014;8.540;2023-03-30T03:18:46;99120.06;;;11.79;76.90
2188;BME280;1100;52.014;8.540;2023-03-30T03:21:12;99126.19;;;11.93;76.81
2188;BME280;1100;52.014;8.540;2023-03-30T03:23:38;99121.19;;;11.97;76.05
2188;BME280;1100;52.014;8.540;2023-03-30T03:26:04;99128.34;;;11.98;75.71
2188;BME280;1100;52.014;8.540;2023-03-30T03:28:31;99120.91;;;11.95;75.19
2188;BME280;1100;52.014;8.540;2023-03-30T03:30:56;99109.78;;;11.95;76.09
2188;BME280;1100;52.014;8.540;2023-03-30T03:33:24;99107.94;;;11.92;76.16
2188;BME280;1100;52.014;8.540;2023-03-30T03:35:50;99099.75;;;11.88;75.36
2188;BME280;1100;52.014;8.540;2023-03-30T03:38:21;99082.47;;;11.84;75.78
2188;BME280;1100;52.014;8.540;2023-03-30T03:40:54;99085.25;;;11.84;76.34
2188;BME280;1100;52.014;8.540;2023-03-30T03:43:20;99070.72;;;11.80;75.98
2188;BME280;1100;52.014;8.540;2023-03-30T03:45:47;99073.06;;;11.72;76.02
2188;BME280;1100;52.014;8.540;2023-03-30T03:48:14;99062.28;;;11.65;76.13
2188;BME280;1100;52.014;8.540;2023-03-30T03:50:41;99050.44;;;11.55;76.22
2188;BME280;1100;52.014;8.540;2023-03-30T03:53:08;99054.03;;;11.46;76.21
2188;BME280;1100;52.014;8.540;2023-03-30T03:55:34;99067.66;;;11.44;76.12
2188;BME280;1100;52.014;8.540;2023-03-30T03:58:00;99071.50;;;11.46;76.11
2188;BME280;1100;52.014;8.540;2023-03-30T04:00:25;99080.75;;;11.53;75.93
2188;BME280;1100;52.014;8.540;2023-03-30T04:02:51;99064.69;;;11.48;75.61
2188;BME280;1100;52.014;8.540;2023-03-30T04:05:17;99054.66;;;11.41;75.92
2188;BME280;1100;52.014;8.540;2023-03-30T04:07:42;99066.31;;;11.30;76.04
2188;BME280;1100;52.014;8.540;2023-03-30T04:10:11;99067.09;;;11.30;76.14
2188;BME280;1100;52.014;8.540;2023-03-30T04:12:37;99065.56;;;11.29;76.21
2188;BME280;1100;52.014;8.540;2023-03-30T04:15:04;99066.50;;;11.26;76.28
2188;BME280;1100;52.014;8.540;2023-03-30T04:17:30;99060.00;;;11.29;76.41
2188;BME280;1100;52.014;8.540;2023-03-30T04:19:58;99062.78;;;11.29;76.35
2188;BME280;1100;52.014;8.540;2023-03-30T04:22:28;99066.78;;;11.28;76.33
2188;BME280;1100;52.014;8.540;2023-03-30T04:24:57;99064.94;;;11.25;76.56
2188;BME280;1100;52.014;8.540;2023-03-30T04:27:23;99056.47;;;11.19;76.53
2188;BME280;1100;52.014;8.540;2023-03-30T04:29:50;99062.19;;;11.16;76.45
2188;BME280;1100;52.014;8.540;2023-03-30T04:32:15;99062.97;;;11.16;76.59
2188;BME280;1100;52.014;8.540;2023-03-30T04:34:45;99052.31;;;11.15;76.47
2188;BME280;1100;52.014;8.540;2023-03-30T04:37:11;99052.91;;;11.19;76.88
2188;BME280;1100;52.014;8.540;2023-03-30T04:39:42;99046.09;;;11.29;76.89
2188;BME280;1100;52.014;8.540;2023-03-30T04:42:08;99056.22;;;11.42;76.77
2188;BME280;1100;52.014;8.540;2023-03-30T04:44:38;99033.66;;;11.40;75.74
2188;BME280;1100;52.014;8.540;2023-03-30T04:47:07;99056.69;;;11.74;75.34
2188;BME280;1100;52.014;8.540;2023-03-30T04:49:32;99043.22;;;11.97;75.41
2188;BME280;1100;52.014;8.540;2023-03-30T04:51:57;99054.47;;;12.12;75.24
2188;BME280;1100;52.014;8.540;2023-03-30T04:54:22;99040.63;;;12.18;74.21
2188;BME280;1100;52.014;8.540;2023-03-30T04:56:48;99045.72;;;12.19;74.50
2188;BME280;1100;52.014;8.540;2023-03-30T04:59:13;99049.66;;;12.13;74.60
2188;BME280;1100;52.014;8.540;2023-03-30T05:01:40;99055.56;;;12.05;74.78
2188;BME280;1100;52.014;8.540;2023-03-30T05:04:06;99056.22;;;12.00;74.75
2188;BME280;1100;52.014;8.540;2023-03-30T05:06:31;99061.50;;;11.98;74.58
2188;BME280;1100;52.014;8.540;2023-03-30T05:09:00;99051.09;;;11.99;74.87
2188;BME280;1100;52.014;8.540;2023-03-30T05:11:25;99069.38;;;12.00;74.70
2188;BME280;1100;52.014;8.540;2023-03-30T05:13:51;99044.41;;;12.05;74.56
2188;BME280;1100;52.014;8.540;2023-03-30T05:16:16;99046.13;;;12.03;74.71
2188;BME280;1100;52.014;8.540;2023-03-30T05:18:42;99044.00;;;11.98;74.59
2188;BME280;1100;52.014;8.540;2023-03-30T05:21:08;99037.66;;;11.97;74.95
2188;BME280;1100;52.014;8.540;2023-03-30T05:23:33;99036.13;;;11.96;74.68
2188;BME280;1100;52.014;8.540;2023-03-30T05:25:59;99053.25;;;12.04;74.57
2188;BME280;1100;52.014;8.540;2023-03-30T05:28:24;99051.38;;;12.10;74.71
2188;BME280;1100;52.014;8.540;2023-03-30T05:30:52;99052.44;;;12.13;74.70
2188;BME280;1100;52.014;8.540;2023-03-30T05:33:18;99046.41;;;12.14;74.76
2188;BME280;1100;52.014;8.540;2023-03-30T05:35:43;99052.72;;;12.15;74.56
2188;BME280;1100;52.014;8.540;2023-03-30T05:38:09;99051.50;;;12.16;74.57
2188;BME280;1100;52.014;8.540;2023-03-30T05:40:34;99044.69;;;12.17;74.68
2188;BME280;1100;52.014;8.540;2023-03-30T05:42:59;99039.69;;;12.21;74.46
2188;BME280;1100;52.014;8.540;2023-03-30T05:45:25;99036.06;;;12.30;74.04
2188;BME280;1100;52.014;8.540;2023-03-30T05:47:52;99040.41;;;12.46;73.72
2188;BME280;1100;52.014;8.540;2023-03-30T05:50:18;99041.56;;;12.54;73.56
2188;BME280;1100;52.014;8.540;2023-03-30T05:52:43;99035.53;;;12.56;73.44
2188;BME280;1100;52.014;8.540;2023-03-30T05:55:09;99025.91;;;12.57;72.83
2188;BME280;1100;52.014;8.540;2023-03-30T05:57:36;99022.44;;;12.62;73.00
2188;BME280;1100;52.014;8.540;2023-03-30T06:00:01;99031.38;;;12.66;73.20
2188;BME280;1100;52.014;8.540;2023-03-30T06:02:30;99032.81;;;12.62;73.19
2188;BME280;1100;52.014;8.540;2023-03-30T06:04:56;99035.91;;;12.64;73.31
2188;BME280;1100;52.014;8.540;2023-03-30T06:07:21;99026.88;;;12.69;72.51
2188;BME280;1100;52.014;8.540;2023-03-30T06:09:48;99020.13;;;12.76;72.90
2188;BME280;1100;52.014;8.540;2023-03-30T06:12:14;99011.88;;;12.81;72.68
2188;BME280;1100;52.014;8.540;2023-03-30T06:14:39;99002.56;;;12.85;72.39
2188;BME280;1100;52.014;8.540;2023-03-30T06:17:05;99006.38;;;12.87;72.36
2188;BME280;1100;52.014;8.540;2023-03-30T06:19:30;99018.31;;;12.88;72.57
2188;BME280;1100;52.014;8.540;2023-03-30T06:21:55;99016.28;;;12.88;72.07
2188;BME280;1100;52.014;8.540;2023-03-30T06:24:21;99025.44;;;12.89;72.27
2188;BME280;1100;52.014;8.540;2023-03-30T06:26:46;99023.13;;;12.87;72.00
2188;BME280;1100;52.014;8.540;2023-03-30T06:29:13;99016.59;;;12.90;71.87
2188;BME280;1100;52.014;8.540;2023-03-30T06:31:38;99023.22;;;12.93;71.82
2188;BME280;1100;52.014;8.540;2023-03-30T06:34:03;99033.13;;;12.94;71.68
2188;BME280;1100;52.014;8.540;2023-03-30T06:36:29;99030.53;;;12.90;71.01
2188;BME280;1100;52.014;8.540;2023-03-30T06:38:54;99027.44;;;12.88;71.67
2188;BME280;1100;52.014;8.540;2023-03-30T06:41:19;99029.47;;;12.88;71.29
2188;BME280;1100;52.014;8.540;2023-03-30T06:43:45;99040.34;;;12.86;71.62
2188;BME280;1100;52.014;8.540;2023-03-30T06:46:10;99038.22;;;12.80;71.87
2188;BME280;1100;52.014;8.540;2023-03-30T06:48:36;99042.75;;;12.78;72.04
2188;BME280;1100;52.014;8.540;2023-03-30T06:51:02;99041.47;;;12.79;71.89
2188;BME280;1100;52.014;8.540;2023-03-30T06:53:28;99044.66;;;12.87;71.94
2188;BME280;1100;52.014;8.540;2023-03-30T06:55:55;99044.00;;;12.92;72.03
2188;BME280;1100;52.014;8.540;2023-03-30T06:58:22;99048.91;;;12.97;72.20
2188;BME280;1100;52.014;8.540;2023-03-30T07:00:47;99043.59;;;12.99;71.79
2188;BME280;1100;52.014;8.540;2023-03-30T07:03:15;99046.97;;;13.03;71.94
2188;BME280;1100;52.014;8.540;2023-03-30T07:05:41;99036.38;;;13.07;71.75
2188;BME280;1100;52.014;8.540;2023-03-30T07:08:06;99043.59;;;13.14;71.97
2188;BME280;1100;52.014;8.540;2023-03-30T07:10:32;99044.34;;;13.15;71.78
2188;BME280;1100;52.014;8.540;2023-03-30T07:12:57;99039.34;;;13.19;71.48
2188;BME280;1100;52.014;8.540;2023-03-30T07:15:23;99033.00;;;13.18;71.71
2188;BME280;1100;52.014;8.540;2023-03-30T07:17:49;99040.09;;;13.19;71.88
2188;BME280;1100;52.014;8.540;2023-03-30T07:20:14;99032.22;;;13.18;71.55
2188;BME280;1100;52.014;8.540;2023-03-30T07:22:41;99040.88;;;13.20;71.90
2188;BME280;1100;52.014;8.540;2023-03-30T07:25:07;99038.66;;;13.24;71.50
2188;BME280;1100;52.014;8.540;2023-03-30T07:27:33;99045.50;;;13.23;71.68
2188;BME280;1100;52.014;8.540;2023-03-30T07:30:00;99035.88;;;13.24;71.70
2188;BME280;1100;52.014;8.540;2023-03-30T07:32:26;99037.41;;;13.25;71.57
2188;BME280;1100;52.014;8.540;2023-03-30T07:34:51;99030.59;;;13.26;70.30
2188;BME280;1100;52.014;8.540;2023-03-30T07:37:16;99040.88;;;13.35;70.51
2188;BME280;1100;52.014;8.540;2023-03-30T07:39:42;99043.69;;;13.71;69.64
2188;BME280;1100;52.014;8.540;2023-03-30T07:42:07;99039.69;;;13.78;69.51
2188;BME280;1100;52.014;8.540;2023-03-30T07:44:33;99040.53;;;13.84;69.34
2188;BME280;1100;52.014;8.540;2023-03-30T07:46:58;99044.53;;;13.98;69.61
2188;BME280;1100;52.014;8.540;2023-03-30T07:49:24;99046.91;;;14.05;69.74
2188;BME280;1100;52.014;8.540;2023-03-30T07:51:49;99049.28;;;14.13;69.28
2188;BME280;1100;52.014;8.540;2023-03-30T07:54:15;99047.25;;;14.13;69.15
2188;BME280;1100;52.014;8.540;2023-03-30T07:56:40;99047.25;;;14.13;69.00
2188;BME280;1100;52.014;8.540;2023-03-30T07:59:07;99046.53;;;14.18;69.21
2188;BME280;1100;52.014;8.540;2023-03-30T08:01:32;99043.25;;;14.20;69.17
2188;BME280;1100;52.014;8.540;2023-03-30T08:03:59;99055.72;;;14.19;68.20
2188;BME280;1100;52.014;8.540;2023-03-30T08:06:25;99057.94;;;14.15;68.24
2188;BME280;1100;52.014;8.540;2023-03-30T08:08:50;99042.44;;;14.14;68.33
2188;BME280;1100;52.014;8.540;2023-03-30T08:11:16;99063.06;;;14.16;68.28
2188;BME280;1100;52.014;8.540;2023-03-30T08:13:42;99063.25;;;14.13;68.41
2188;BME280;1100;52.014;8.540;2023-03-30T08:16:09;99067.31;;;14.12;67.82
2188;BME280;1100;52.014;8.540;2023-03-30T08:18:34;99066.34;;;14.15;67.68
2188;BME280;1100;52.014;8.540;2023-03-30T08:21:01;99050.81;;;14.14;67.47
2188;BME280;1100;52.014;8.540;2023-03-30T08:23:26;99070.09;;;14.12;67.46
2188;BME280;1100;52.014;8.540;2023-03-30T08:25:55;99064.16;;;14.04;67.80
2188;BME280;1100;52.014;8.540;2023-03-30T08:28:20;99056.97;;;13.97;67.54
2188;BME280;1100;52.014;8.540;2023-03-30T08:30:46;99066.31;;;13.94;67.56
2188;BME280;1100;52.014;8.540;2023-03-30T08:33:11;99067.97;;;13.86;67.48
2188;BME280;1100;52.014;8.540;2023-03-30T08:35:37;99060.50;;;13.77;67.30
2188;BME280;1100;52.014;8.540;2023-03-30T08:38:03;99063.78;;;13.75;67.77
2188;BME280;1100;52.014;8.540;2023-03-30T08:40:29;99068.13;;;13.76;68.40
2188;BME280;1100;52.014;8.540;2023-03-30T08:45:42;99068.47;;;13.84;68.68
2188;BME280;1100;52.014;8.540;2023-03-30T08:48:18;99064.69;;;13.87;68.64
2188;BME280;1100;52.014;8.540;2023-03-30T08:53:18;99069.09;;;13.73;68.67
2188;BME280;1100;52.014;8.540;2023-03-30T08:56:15;99074.66;;;13.52;69.08
2188;BME280;1100;52.014;8.540;2023-03-30T09:01:53;99060.56;;;13.46;69.96
2188;BME280;1100;52.014;8.540;2023-03-30T09:04:51;99068.56;;;13.39;70.28
2188;BME280;1100;52.014;8.540;2023-03-30T09:07:31;99064.72;;;13.36;70.57
2188;BME280;1100;52.014;8.540;2023-03-30T09:09:59;99071.09;;;13.37;70.68
2188;BME280;1100;52.014;8.540;2023-03-30T09:12:41;99077.59;;;13.49;70.69
2188;BME280;1100;52.014;8.540;2023-03-30T09:15:40;99082.25;;;13.52;70.07
2188;BME280;1100;52.014;8.540;2023-03-30T09:18:40;99092.44;;;13.25;70.71
2188;BME280;1100;52.014;8.540;2023-03-30T09:21:09;99091.41;;;12.92;71.38
2188;BME280;1100;52.014;8.540;2023-03-30T09:23:37;99099.38;;;12.69;72.01
2188;BME280;1100;52.014;8.540;2023-03-30T09:26:12;99098.75;;;12.50;72.81
2188;BME280;1100;52.014;8.540;2023-03-30T09:29:02;99107.72;;;12.29;73.16
2188;BME280;1100;52.014;8.540;2023-03-30T09:31:46;99137.56;;;12.04;74.76
2188;BME280;1100;52.014;8.540;2023-03-30T09:39:20;99156.31;;;10.52;77.95
2188;BME280;1100;52.014;8.540;2023-03-30T09:42:10;99154.22;;;10.05;78.81
2188;BME280;1100;52.014;8.540;2023-03-30T09:44:45;99134.69;;;9.77;79.03
2188;BME280;1100;52.014;8.540;2023-03-30T09:47:38;99149.72;;;9.57;81.25
2188;BME280;1100;52.014;8.540;2023-03-30T09:50:06;99152.00;;;9.50;82.95
2188;BME280;1100;52.014;8.540;2023-03-30T09:52:39;99138.84;;;9.41;82.28
2188;BME280;1100;52.014;8.540;2023-03-30T09:57:47;99133.19;;;9.44;82.54
2188;BME280;1100;52.014;8.540;2023-03-30T10:02:56;99142.66;;;9.66;83.47
2188;BME280;1100;52.014;8.540;2023-03-30T10:05:22;99131.00;;;9.80;83.93
2188;BME280;1100;52.014;8.540;2023-03-30T10:07:52;99139.19;;;9.93;84.19
2188;BME280;1100;52.014;8.540;2023-03-30T10:12:53;99143.28;;;10.20;83.55
2188;BME280;1100;52.014;8.540;2023-03-30T10:15:21;99126.84;;;10.73;83.62
2188;BME280;1100;52.014;8.540;2023-03-30T10:17:48;99148.38;;;11.25;83.50
2188;BME280;1100;52.014;8.540;2023-03-30T10:20:35;99139.47;;;11.98;82.79
2188;BME280;1100;52.014;8.540;2023-03-30T10:23:05;99145.97;;;11.95;82.62
2188;BME280;1100;52.014;8.540;2023-03-30T10:25:39;99152.22;;;11.80;82.42
2188;BME280;1100;52.014;8.540;2023-03-30T10:28:15;99149.84;;;12.31;82.01
2188;BME280;1100;52.014;8.540;2023-03-30T10:30:49;99161.50;;;12.85;82.12
2188;BME280;1100;52.014;8.540;2023-03-30T10:33:15;99159.53;;;13.61;81.68
2188;BME280;1100;52.014;8.540;2023-03-30T10:35:41;99156.88;;;14.23;81.21
2188;BME280;1100;52.014;8.540;2023-03-30T10:38:07;99137.16;;;14.74;80.07
2188;BME280;1100;52.014;8.540;2023-03-30T10:40:37;99144.06;;;15.00;79.69
2188;BME280;1100;52.014;8.540;2023-03-30T10:43:05;99140.44;;;15.20;77.23
2188;BME280;1100;52.014;8.540;2023-03-30T10:45:44;99140.47;;;15.26;76.50
2188;BME280;1100;52.014;8.540;2023-03-30T11:04:31;99129.91;;;14.62;71.89
2188;BME280;1100;52.014;8.540;2023-03-30T11:07:00;99133.00;;;14.43;72.36
2188;BME280;1100;52.014;8.540;2023-03-30T11:09:31;99123.81;;;14.42;72.65
2188;BME280;1100;52.014;8.540;2023-03-30T11:12:16;99136.19;;;14.15;72.68
2188;BME280;1100;52.014;8.540;2023-03-30T11:14:51;99154.56;;;13.86;72.13
2188;BME280;1100;52.014;8.540;2023-03-30T11:17:31;99155.09;;;13.24;71.94
2188;BME280;1100;52.014;8.540;2023-03-30T11:22:57;99164.06;;;12.00;74.13
2188;BME280;1100;52.014;8.540;2023-03-30T11:26:04;99153.47;;;11.79;75.72
2188;BME280;1100;52.014;8.540;2023-03-30T11:31:38;99168.34;;;11.76;76.47
2188;BME280;1100;52.014;8.540;2023-03-30T11:34:13;99169.28;;;11.73;76.70
2188;BME280;1100;52.014;8.540;2023-03-30T11:39:44;99160.13;;;11.39;76.84
2188;BME280;1100;52.014;8.540;2023-03-30T11:42:17;99153.16;;;11.43;77.11
2188;BME280;1100;52.014;8.540;2023-03-30T11:44:46;99151.53;;;11.61;76.95
2188;BME280;1100;52.014;8.540;2023-03-30T11:50:04;99142.09;;;11.92;76.76
2188;BME280;1100;52.014;8.540;2023-03-30T11:52:47;99135.59;;;11.95;75.84
2188;BME280;1100;52.014;8.540;2023-03-30T11:58:20;99147.47;;;12.05;75.35
2188;BME280;1100;52.014;8.540;2023-03-30T12:03:39;99148.16;;;12.25;74.96
2188;BME280;1100;52.014;8.540;2023-03-30T12:06:23;99149.94;;;12.37;75.34
2188;BME280;1100;52.014;8.540;2023-03-30T12:12:12;99158.88;;;12.66;73.75
2188;BME280;1100;52.014;8.540;2023-03-30T12:15:04;99161.91;;;13.23;73.20
2188;BME280;1100;52.014;8.540;2023-03-30T12:17:52;99159.19;;;13.89;73.46
2188;BME280;1100;52.014;8.540;2023-03-30T12:20:30;99149.25;;;14.65;70.74
2188;BME280;1100;52.014;8.540;2023-03-30T12:26:01;99157.88;;;15.36;68.60
2188;BME280;1100;52.014;8.540;2023-03-30T12:28:45;99150.03;;;15.78;69.52
2188;BME280;1100;52.014;8.540;2023-03-30T12:31:11;99166.06;;;16.10;67.99
2188;BME280;1100;52.014;8.540;2023-03-30T12:33:50;99145.19;;;16.16;66.52
2188;BME280;1100;52.014;8.540;2023-03-30T12:36:35;99146.38;;;15.66;64.67
2188;BME280;1100;52.014;8.540;2023-03-30T12:39:04;99132.50;;;15.45;63.98
2188;BME280;1100;52.014;8.540;2023-03-30T12:41:40;99138.31;;;15.09;63.49
2188;BME280;1100;52.014;8.540;2023-03-30T12:53:17;99127.09;;;14.62;64.22
2188;BME280;1100;52.014;8.540;2023-03-30T12:58:54;99146.09;;;14.16;63.47
2188;BME280;1100;52.014;8.540;2023-03-30T13:02:04;99151.41;;;13.78;63.98
2188;BME280;1100;52.014;8.540;2023-03-30T13:04:43;99145.28;;;13.43;64.90
2188;BME280;1100;52.014;8.540;2023-03-30T13:07:20;99156.94;;;13.27;65.65
2188;BME280;1100;52.014;8.540;2023-03-30T13:12:31;99163.09;;;13.16;66.78
2188;BME280;1100;52.014;8.540;2023-03-30T13:20:20;99158.44;;;13.73;68.08
2188;BME280;1100;52.014;8.540;2023-03-30T13:22:58;99168.84;;;13.88;68.03
2188;BME280;1100;52.014;8.540;2023-03-30T13:25:37;99159.78;;;13.93;68.19
2188;BME280;1100;52.014;8.540;2023-03-30T13:28:43;99165.59;;;14.10;68.93
2188;BME280;1100;52.014;8.540;2023-03-30T13:37:14;99148.53;;;14.08;68.21
2188;BME280;1100;52.014;8.540;2023-03-30T13:40:00;99158.44;;;13.73;68.44
2188;BME280;1100;52.014;8.540;2023-03-30T13:45:24;99142.03;;;13.60;69.43
2188;BME280;1100;52.014;8.540;2023-03-30T13:48:13;99153.09;;;13.69;70.02
2188;BME280;1100;52.014;8.540;2023-03-30T13:50:45;99151.63;;;13.59;69.70
2188;BME280;1100;52.014;8.540;2023-03-30T13:53:15;99155.69;;;13.43;69.41
2188;BME280;1100;52.014;8.540;2023-03-30T13:55:44;99151.34;;;13.27;69.87
2188;BME280;1100;52.014;8.540;2023-03-30T14:00:56;99167.03;;;13.09;69.44
2188;BME280;1100;52.014;8.540;2023-03-30T14:03:42;99171.09;;;12.83;69.14
2188;BME280;1100;52.014;8.540;2023-03-30T14:06:19;99192.47;;;12.47;69.26
2188;BME280;1100;52.014;8.540;2023-03-30T14:08:57;99164.53;;;12.32;69.99
2188;BME280;1100;52.014;8.540;2023-03-30T14:11:50;99167.16;;;11.92;70.87
2188;BME280;1100;52.014;8.540;2023-03-30T14:14:22;99162.84;;;11.57;71.68
2188;BME280;1100;52.014;8.540;2023-03-30T14:16:50;99166.88;;;11.47;72.56
2188;BME280;1100;52.014;8.540;2023-03-30T14:19:31;99169.97;;;11.49;73.46
2188;BME280;1100;52.014;8.540;2023-03-30T14:22:09;99178.50;;;11.89;73.29
2188;BME280;1100;52.014;8.540;2023-03-30T14:24:36;99171.16;;;12.01;73.40
2188;BME280;1100;52.014;8.540;2023-03-30T14:27:05;99173.41;;;12.21;73.16
2188;BME280;1100;52.014;8.540;2023-03-30T14:29:30;99170.22;;;12.38;73.21
2188;BME280;1100;52.014;8.540;2023-03-30T14:31:59;99175.47;;;12.60;73.12
2188;BME280;1100;52.014;8.540;2023-03-30T14:34:26;99173.41;;;12.70;72.88
2188;BME280;1100;52.014;8.540;2023-03-30T14:36:54;99177.31;;;12.63;72.82
2188;BME280;1100;52.014;8.540;2023-03-30T14:39:21;99193.03;;;12.51;72.73
2188;BME280;1100;52.014;8.540;2023-03-30T14:41:48;99202.78;;;12.31;72.30
2188;BME280;1100;52.014;8.540;2023-03-30T14:44:16;99199.16;;;12.06;72.25
2188;BME280;1100;52.014;8.540;2023-03-30T14:46:44;99215.00;;;11.81;72.37
2188;BME280;1100;52.014;8.540;2023-03-30T14:49:19;99238.28;;;11.59;72.58
2188;BME280;1100;52.014;8.540;2023-03-30T14:51:50;99234.63;;;11.34;72.80
2188;BME280;1100;52.014;8.540;2023-03-30T14:54:18;99226.63;;;10.99;72.69
2188;BME280;1100;52.014;8.540;2023-03-30T14:56:50;99224.28;;;10.69;73.08
2188;BME280;1100;52.014;8.540;2023-03-30T14:59:17;99220.97;;;10.43;75.15
2188;BME280;1100;52.014;8.540;2023-03-30T15:01:43;99245.88;;;10.15;77.03
2188;BME280;1100;52.014;8.540;2023-03-30T15:04:13;99251.34;;;9.96;76.86
2188;BME280;1100;52.014;8.540;2023-03-30T15:06:39;99249.56;;;9.80;77.19
2188;BME280;1100;52.014;8.540;2023-03-30T15:09:15;99256.16;;;9.73;78.33
2188;BME280;1100;52.014;8.540;2023-03-30T15:11:42;99239.47;;;9.64;78.98
2188;BME280;1100;52.014;8.540;2023-03-30T15:14:13;99236.84;;;9.60;79.47
2188;BME280;1100;52.014;8.540;2023-03-30T15:16:41;99236.44;;;9.71;79.47
2188;BME280;1100;52.014;8.540;2023-03-30T15:21:43;99222.03;;;9.95;79.80
2188;BME280;1100;52.014;8.540;2023-03-30T15:24:15;99223.31;;;10.03;79.74
2188;BME280;1100;52.014;8.540;2023-03-30T15:26:46;99229.06;;;10.18;80.01
2188;BME280;1100;52.014;8.540;2023-03-30T15:29:14;99224.78;;;10.36;80.50
2188;BME280;1100;52.014;8.540;2023-03-30T15:31:42;99225.91;;;10.48;80.24
2188;BME280;1100;52.014;8.540;2023-03-30T15:34:14;99217.78;;;10.63;80.19
2188;BME280;1100;52.014;8.540;2023-03-30T15:36:40;99212.38;;;10.69;80.22
2188;BME280;1100;52.014;8.540;2023-03-30T15:39:23;99217.94;;;10.69;80.42
2188;BME280;1100;52.014;8.540;2023-03-30T15:42:01;99205.59;;;10.70;80.15
2188;BME280;1100;52.014;8.540;2023-03-30T15:44:40;99205.28;;;10.77;80.47
2188;BME280;1100;52.014;8.540;2023-03-30T15:47:17;99206.38;;;10.80;80.59
2188;BME280;1100;52.014;8.540;2023-03-30T15:49:48;99201.59;;;10.80;80.76